EmailTwitter


Surface observations / United Kingdom / EGUB (03658)

Regions: Quebec | Canada | USA | Europe | France | UK | Elsewhere
Station
Display
Info & Location for EGUB (03658) | Help decoding METAR

Weather Conditions observed on 2018/07/17 at 06:50 UTC at BENSON RAF, UK (EGUB)

Temperature: 15.0 Celsius.

Dewpoint: 11.0 Celsius.

Relative Humidity: 77%

Winds: Southwest at 7 km/h or 4 knots.

Mean Sea level Pressure: 101.50 kilopascals.

Coded METAR:

EGUB 170650Z 21004KT CAVOK 15/11 Q1015 BLU NOSIG=